Terminal Aerodrome Forecast
Issued by NWS

Home | Current Version | Previous Version | Text Only | Print | Product List | Glossary On
Versions: 1 2 3 4 5 6 7 8 9 10 11 12 13 14 15 16
000
FTUS46 KMTR 292300
TAFSJC
TAF
KSJC 292338Z 3000/3024 30011KT P6SM FEW220
     FM300500 30006KT P6SM FEW250
     FM300800 00000KT P6SM FEW250
     FM302000 31005KT P6SM SCT250
     FM302300 30011KT P6SM SCT250=

USA.gov is the U.S. government's official web portal to all federal, state and local government web resources and services.